createdAt,value
2018-05-05T00:00:44.821Z,40.10
2018-05-05T00:01:44.839Z,35.80
2018-05-05T00:02:44.850Z,42.00
2018-05-05T00:03:44.862Z,41.90
2018-05-05T00:04:44.877Z,44.50
2018-05-05T00:05:44.893Z,43.40
2018-05-05T00:06:44.907Z,40.90
2018-05-05T00:07:44.922Z,44.60
2018-05-05T00:08:44.933Z,39.40
2018-05-05T00:09:44.947Z,43.40
2018-05-05T00:10:44.961Z,42.00
2018-05-05T00:11:44.975Z,44.50
2018-05-05T00:12:44.989Z,47.90
2018-05-05T00:13:45.003Z,38.00
2018-05-05T00:14:45.022Z,38.30
2018-05-05T00:15:45.029Z,40.00
2018-05-05T00:16:45.046Z,36.50
2018-05-05T00:17:45.059Z,41.20
2018-05-05T00:18:45.073Z,39.60
2018-05-05T00:19:45.085Z,39.90
2018-05-05T00:20:45.100Z,43.60
2018-05-05T00:21:45.114Z,41.40
2018-05-05T00:22:45.130Z,39.50
2018-05-05T00:23:45.140Z,43.80
2018-05-05T00:24:45.156Z,52.70
2018-05-05T00:25:45.169Z,58.00
2018-05-05T00:26:45.183Z,57.00
2018-05-05T00:27:45.196Z,178.50
2018-05-05T00:28:45.211Z,57.20
2018-05-05T00:29:45.223Z,116.40
2018-05-05T00:30:45.238Z,53.10
2018-05-05T00:31:45.251Z,108.60
2018-05-05T00:32:45.269Z,51.60
2018-05-05T00:33:45.280Z,48.10
2018-05-05T00:34:45.294Z,46.00
2018-05-05T00:35:45.307Z,49.50
2018-05-05T00:36:45.319Z,48.50
2018-05-05T00:37:45.338Z,49.70
2018-05-05T00:38:45.347Z,44.10
2018-05-05T00:39:45.361Z,47.60
2018-05-05T00:40:45.377Z,45.10
2018-05-05T00:41:45.389Z,41.50
2018-05-05T00:42:45.403Z,43.80
2018-05-05T00:43:45.421Z,44.80
2018-05-05T00:44:45.430Z,42.50
2018-05-05T00:45:45.446Z,50.80
2018-05-05T00:46:45.457Z,41.70
2018-05-05T00:47:45.469Z,42.20
2018-05-05T00:48:45.484Z,40.20
2018-05-05T00:49:45.498Z,40.90
2018-05-05T00:50:45.512Z,41.30
2018-05-05T00:51:45.528Z,41.00
2018-05-05T00:52:45.539Z,45.50
2018-05-05T00:53:45.553Z,48.40
2018-05-05T00:54:45.572Z,48.60
2018-05-05T00:55:45.580Z,44.30
2018-05-05T00:56:45.594Z,44.00
2018-05-05T00:57:45.609Z,43.00
2018-05-05T00:58:45.623Z,39.80
2018-05-05T00:59:45.635Z,42.30
2018-05-05T01:00:45.650Z,49.80
2018-05-05T01:01:45.663Z,43.30
2018-05-05T01:02:45.678Z,43.50
2018-05-05T01:03:45.691Z,41.50
2018-05-05T01:04:45.706Z,40.00
2018-05-05T01:05:45.721Z,39.60
2018-05-05T01:06:45.734Z,39.40
2018-05-05T01:07:45.745Z,37.50
2018-05-05T01:08:45.761Z,40.70
2018-05-05T01:09:45.774Z,45.80
2018-05-05T01:10:45.788Z,49.80
2018-05-05T01:11:45.801Z,47.20
2018-05-05T01:12:45.816Z,40.10
2018-05-05T01:13:45.830Z,43.50
2018-05-05T01:14:45.847Z,38.10
2018-05-05T01:15:45.856Z,37.40
2018-05-05T01:16:45.885Z,37.80
2018-05-05T01:17:45.884Z,36.70
2018-05-05T01:18:45.898Z,36.60
2018-05-05T01:19:45.912Z,34.20
2018-05-05T01:20:45.925Z,33.50
2018-05-05T01:21:45.939Z,35.80
2018-05-05T01:22:45.957Z,34.70
2018-05-05T01:23:45.968Z,38.10
2018-05-05T01:24:45.979Z,39.10
2018-05-05T01:25:45.994Z,34.80
2018-05-05T01:26:46.010Z,34.50
2018-05-05T01:27:46.022Z,34.80
2018-05-05T01:28:46.036Z,34.90
2018-05-05T01:29:46.051Z,38.50
2018-05-05T01:30:46.065Z,37.50
2018-05-05T01:31:46.079Z,35.70
2018-05-05T01:32:46.095Z,35.30
2018-05-05T01:33:46.105Z,36.70
2018-05-05T01:34:46.119Z,35.20
2018-05-05T01:35:46.133Z,40.40
2018-05-05T01:36:46.145Z,40.80
2018-05-05T01:37:46.160Z,43.10
2018-05-05T01:38:46.176Z,45.50
2018-05-05T01:39:46.187Z,40.10
2018-05-05T01:40:46.200Z,41.20
2018-05-05T01:41:46.215Z,36.50
2018-05-05T01:42:46.229Z,40.20
2018-05-05T01:43:46.242Z,38.60
2018-05-05T01:44:46.258Z,41.80
2018-05-05T01:45:46.275Z,41.90
2018-05-05T01:46:46.284Z,40.40
2018-05-05T01:47:46.298Z,37.00
2018-05-05T01:48:46.312Z,38.70
2018-05-05T01:49:46.325Z,39.70
2018-05-05T01:50:46.341Z,37.50
2018-05-05T01:51:46.352Z,39.20
2018-05-05T01:52:46.366Z,38.70
2018-05-05T01:53:46.378Z,35.70
2018-05-05T01:54:46.393Z,36.10
2018-05-05T01:55:46.406Z,41.90
2018-05-05T01:56:46.418Z,40.00
2018-05-05T01:57:46.433Z,37.80
2018-05-05T01:58:46.446Z,41.10
2018-05-05T01:59:46.481Z,42.50
2018-05-05T02:00:46.473Z,43.50
2018-05-05T02:01:46.490Z,43.90
2018-05-05T02:02:46.500Z,45.10
2018-05-05T02:03:46.515Z,41.20
2018-05-05T02:04:46.527Z,42.60
2018-05-05T02:05:46.540Z,41.10
2018-05-05T02:06:46.554Z,42.40
2018-05-05T02:07:46.567Z,36.00
2018-05-05T02:08:46.580Z,35.60
2018-05-05T02:09:46.595Z,38.80
2018-05-05T02:10:46.607Z,50.80
2018-05-05T02:11:46.620Z,47.80
2018-05-05T02:12:46.635Z,45.10
2018-05-05T02:13:46.649Z,205.30
2018-05-05T02:14:46.663Z,67.00
2018-05-05T02:15:46.676Z,49.70
2018-05-05T02:16:46.689Z,43.40
2018-05-05T02:17:46.702Z,47.60
2018-05-05T02:18:46.714Z,49.60
2018-05-05T02:19:46.728Z,104.80
2018-05-05T02:20:46.747Z,176.50
2018-05-05T02:21:46.754Z,121.20
2018-05-05T02:22:46.771Z,90.00
2018-05-05T02:23:46.784Z,52.90
2018-05-05T02:24:46.794Z,48.80
2018-05-05T02:25:46.806Z,46.30
2018-05-05T02:26:46.821Z,47.30
2018-05-05T02:27:46.833Z,73.30
2018-05-05T02:28:46.846Z,55.70
2018-05-05T02:29:46.860Z,48.90
2018-05-05T02:30:46.874Z,62.00
2018-05-05T02:31:46.886Z,53.20
2018-05-05T02:32:46.904Z,47.80
2018-05-05T02:33:46.913Z,48.30
2018-05-05T02:34:46.925Z,47.40
2018-05-05T02:35:46.937Z,46.50
2018-05-05T02:36:46.953Z,49.80
2018-05-05T02:37:46.966Z,48.90
2018-05-05T02:38:46.979Z,44.50
2018-05-05T02:39:47.054Z,40.00
2018-05-05T02:40:47.005Z,39.50
2018-05-05T02:41:47.020Z,40.40
2018-05-05T02:42:47.041Z,41.00
2018-05-05T02:43:47.045Z,40.20
2018-05-05T02:44:47.058Z,45.20
2018-05-05T02:45:47.071Z,41.50
2018-05-05T02:46:47.108Z,43.30
2018-05-05T02:47:47.096Z,38.50
2018-05-05T02:48:47.110Z,37.00
2018-05-05T02:49:47.126Z,39.80
2018-05-05T02:50:47.157Z,43.10
2018-05-05T02:51:47.148Z,554.70
2018-05-05T02:52:47.165Z,54.00
2018-05-05T02:53:47.184Z,187.50
2018-05-05T02:54:47.189Z,338.90
2018-05-05T02:55:47.201Z,1288.00
2018-05-05T02:56:47.225Z,642.50
2018-05-05T02:57:47.244Z,177.30
2018-05-05T02:58:47.243Z,80.20
2018-05-05T02:59:47.252Z,64.80
2018-05-05T03:00:47.265Z,115.00
2018-05-05T03:01:47.279Z,190.30
2018-05-05T03:02:47.294Z,323.50
2018-05-05T03:03:47.308Z,385.10
2018-05-05T03:04:47.319Z,100.00
2018-05-05T03:05:47.330Z,190.90
2018-05-05T03:06:47.352Z,107.90
2018-05-05T03:07:47.362Z,452.50
2018-05-05T03:08:47.370Z,367.50
2018-05-05T03:09:47.385Z,212.70
2018-05-05T03:10:47.398Z,423.10
2018-05-05T03:11:47.410Z,432.40
2018-05-05T03:12:47.422Z,296.70
2018-05-05T03:13:47.435Z,143.30
2018-05-05T03:14:47.449Z,57.00
2018-05-05T03:15:47.460Z,48.20
2018-05-05T03:16:47.475Z,46.90
2018-05-05T03:17:47.487Z,45.90
2018-05-05T03:18:47.502Z,46.30
2018-05-05T03:19:47.513Z,46.00
2018-05-05T03:20:47.529Z,48.00
2018-05-05T03:21:47.544Z,46.70
2018-05-05T03:22:47.603Z,42.20
2018-05-05T03:23:47.566Z,37.00
2018-05-05T03:24:47.579Z,37.90
2018-05-05T03:25:47.591Z,40.80
2018-05-05T03:26:47.682Z,42.20
2018-05-05T03:27:47.616Z,39.30
2018-05-05T03:28:47.628Z,42.10
2018-05-05T03:29:47.642Z,41.20
2018-05-05T03:30:47.656Z,43.30
2018-05-05T03:31:47.667Z,41.80
2018-05-05T03:32:47.679Z,44.40
2018-05-05T03:33:47.693Z,43.00
2018-05-05T03:34:47.707Z,44.70
2018-05-05T03:35:47.718Z,48.70
2018-05-05T03:36:47.808Z,46.60
2018-05-05T03:37:47.744Z,43.40
2018-05-05T03:38:47.757Z,43.60
2018-05-05T03:39:47.777Z,45.50
2018-05-05T03:40:47.788Z,51.10
2018-05-05T03:41:47.795Z,48.10
2018-05-05T03:42:47.808Z,47.70
2018-05-05T03:43:47.819Z,44.20
2018-05-05T03:44:47.831Z,49.50
2018-05-05T03:45:47.851Z,44.70
2018-05-05T03:46:47.858Z,43.50
2018-05-05T03:47:47.875Z,44.50
2018-05-05T03:48:47.882Z,43.10
2018-05-05T03:49:47.898Z,47.30
2018-05-05T03:50:47.910Z,45.20
2018-05-05T03:51:47.924Z,43.20
2018-05-05T03:52:47.935Z,43.40
2018-05-05T03:53:47.952Z,42.10
2018-05-05T03:54:47.961Z,37.90
2018-05-05T03:55:47.973Z,35.10
2018-05-05T03:56:47.985Z,34.10
2018-05-05T03:57:47.999Z,34.70
2018-05-05T03:58:48.013Z,34.30
2018-05-05T03:59:48.023Z,32.40
2018-05-05T04:00:48.036Z,35.70
2018-05-05T04:01:48.050Z,29.80
2018-05-05T04:02:48.062Z,30.80
2018-05-05T04:03:48.076Z,29.80
2018-05-05T04:04:48.091Z,29.90
2018-05-05T04:05:48.100Z,31.30
2018-05-05T04:06:48.115Z,27.20
2018-05-05T04:07:48.125Z,24.40
2018-05-05T04:08:48.139Z,25.40
2018-05-05T04:09:48.209Z,24.30
2018-05-05T04:10:48.165Z,24.20
2018-05-05T04:11:48.177Z,24.90
2018-05-05T04:12:48.189Z,24.50
2018-05-05T04:13:48.202Z,26.10
2018-05-05T04:14:48.216Z,39.40
2018-05-05T04:15:48.228Z,29.80
2018-05-05T04:16:48.247Z,28.20
2018-05-05T04:17:48.255Z,27.00
2018-05-05T04:18:48.268Z,29.90
2018-05-05T04:19:48.280Z,28.10
2018-05-05T04:20:48.293Z,25.60
2018-05-05T04:21:48.306Z,26.50
2018-05-05T04:22:48.317Z,21.80
2018-05-05T04:23:48.331Z,22.50
2018-05-05T04:24:48.344Z,24.60
2018-05-05T04:25:48.356Z,24.00
2018-05-05T04:26:48.371Z,24.50
2018-05-05T04:27:48.384Z,26.20
2018-05-05T04:28:48.393Z,20.40
2018-05-05T04:29:48.408Z,24.40
2018-05-05T04:30:48.423Z,24.20
2018-05-05T04:31:48.433Z,26.30
2018-05-05T04:32:48.446Z,25.60
2018-05-05T04:33:48.457Z,22.30
2018-05-05T04:34:48.472Z,24.70
2018-05-05T04:35:48.485Z,23.00
2018-05-05T04:36:48.500Z,24.50
2018-05-05T04:37:48.513Z,20.50
2018-05-05T04:38:48.522Z,26.80
2018-05-05T04:39:48.535Z,20.90
2018-05-05T04:40:48.546Z,25.30
2018-05-05T04:41:48.558Z,27.80
2018-05-05T04:42:48.573Z,25.60
2018-05-05T04:43:48.589Z,32.70
2018-05-05T04:44:48.602Z,30.90
2018-05-05T04:45:48.610Z,28.70
2018-05-05T04:46:48.624Z,29.40
2018-05-05T04:47:48.635Z,28.90
2018-05-05T04:48:48.648Z,27.70
2018-05-05T04:49:48.663Z,31.30
2018-05-05T04:50:48.674Z,28.60
2018-05-05T04:51:48.688Z,31.60
2018-05-05T04:52:48.699Z,34.90
2018-05-05T04:53:48.713Z,35.50
2018-05-05T04:54:48.725Z,29.60
2018-05-05T04:55:48.738Z,27.70
2018-05-05T04:56:48.767Z,23.70
2018-05-05T04:57:48.763Z,25.20
2018-05-05T04:58:48.777Z,21.30
2018-05-05T04:59:48.789Z,16.60
2018-05-05T05:00:48.801Z,21.10
2018-05-05T05:01:48.815Z,21.40
2018-05-05T05:02:48.826Z,24.80
2018-05-05T05:03:48.839Z,25.00
2018-05-05T05:04:48.852Z,20.90
2018-05-05T05:05:48.866Z,23.30
2018-05-05T05:06:48.878Z,23.00
2018-05-05T05:07:48.892Z,23.20
2018-05-05T05:08:48.903Z,24.50
2018-05-05T05:09:48.916Z,24.50
2018-05-05T05:10:48.939Z,26.40
2018-05-05T05:11:48.941Z,27.90
2018-05-05T05:12:48.958Z,28.50
2018-05-05T05:13:48.967Z,29.00
2018-05-05T05:14:48.980Z,34.10
2018-05-05T05:15:48.991Z,28.90
2018-05-05T05:16:49.052Z,30.30
2018-05-05T05:17:49.016Z,29.70
2018-05-05T05:18:49.038Z,25.40
2018-05-05T05:19:49.041Z,26.70
2018-05-05T05:20:49.054Z,28.30
2018-05-05T05:21:49.066Z,26.80
2018-05-05T05:22:49.077Z,21.90
2018-05-05T05:23:49.090Z,24.40
2018-05-05T05:24:49.103Z,23.50
2018-05-05T05:25:49.116Z,26.70
2018-05-05T05:26:49.129Z,25.80
2018-05-05T05:27:49.141Z,21.40
2018-05-05T05:28:49.208Z,22.70
2018-05-05T05:29:49.164Z,22.60
2018-05-05T05:30:49.179Z,22.10
2018-05-05T05:31:49.193Z,23.30
2018-05-05T05:32:49.221Z,19.70
2018-05-05T05:33:49.215Z,19.10
2018-05-05T05:34:49.229Z,20.10
2018-05-05T05:35:49.237Z,16.60
2018-05-05T05:36:49.251Z,16.30
2018-05-05T05:37:49.264Z,16.50
2018-05-05T05:38:49.276Z,18.80
2018-05-05T05:39:49.287Z,18.80
2018-05-05T05:40:49.299Z,17.70
2018-05-05T05:41:49.314Z,18.30
2018-05-05T05:42:49.333Z,15.90
2018-05-05T05:43:49.336Z,14.60
2018-05-05T05:44:49.350Z,15.40
2018-05-05T05:45:49.361Z,16.80
2018-05-05T05:46:49.377Z,15.90
2018-05-05T05:47:49.387Z,12.40
2018-05-05T05:48:49.400Z,12.90
2018-05-05T05:49:49.419Z,12.90
2018-05-05T05:50:49.425Z,14.60
2018-05-05T05:51:49.437Z,18.40
2018-05-05T05:52:49.450Z,11.00
2018-05-05T05:53:49.465Z,13.00
2018-05-05T05:54:49.475Z,14.50
2018-05-05T05:55:49.486Z,14.30
2018-05-05T05:56:49.500Z,13.90
2018-05-05T05:57:49.511Z,13.20
2018-05-05T05:58:49.526Z,13.20
2018-05-05T05:59:49.611Z,12.80
2018-05-05T06:00:49.552Z,16.40
2018-05-05T06:01:49.562Z,12.90
2018-05-05T06:02:49.577Z,15.90
2018-05-05T06:03:49.587Z,15.80
2018-05-05T06:04:49.600Z,17.10
2018-05-05T06:05:49.614Z,16.80
2018-05-05T06:06:49.625Z,15.50
2018-05-05T06:07:49.640Z,15.40
2018-05-05T06:08:49.652Z,14.10
2018-05-05T06:09:49.671Z,16.70
2018-05-05T06:10:49.681Z,17.20
2018-05-05T06:11:49.689Z,14.50
2018-05-05T06:12:49.704Z,12.80
2018-05-05T06:13:49.714Z,11.80
2018-05-05T06:14:49.733Z,11.90
2018-05-05T06:15:49.743Z,12.90
2018-05-05T06:16:49.756Z,14.30
2018-05-05T06:17:49.768Z,13.30
2018-05-05T06:18:49.780Z,15.70
2018-05-05T06:19:49.794Z,13.90
2018-05-05T06:20:49.809Z,16.00
2018-05-05T06:21:49.820Z,14.60
2018-05-05T06:22:49.835Z,16.70
2018-05-05T06:23:49.845Z,13.90
2018-05-05T06:24:49.857Z,12.90
2018-05-05T06:25:49.870Z,19.00
2018-05-05T06:26:49.887Z,14.10
2018-05-05T06:27:49.898Z,16.00
2018-05-05T06:28:49.912Z,14.70
2018-05-05T06:29:49.921Z,12.80
2018-05-05T06:30:50.000Z,14.00
2018-05-05T06:31:49.947Z,17.20
2018-05-05T06:32:49.963Z,17.00
2018-05-05T06:33:49.974Z,14.20
2018-05-05T06:34:49.988Z,18.20
2018-05-05T06:35:50.000Z,15.10
2018-05-05T06:36:50.014Z,14.40
2018-05-05T06:37:50.029Z,15.90
2018-05-05T06:38:50.046Z,14.20
2018-05-05T06:39:50.053Z,13.30
2018-05-05T06:40:50.068Z,14.10
2018-05-05T06:41:50.081Z,13.70
2018-05-05T06:42:50.094Z,15.00
2018-05-05T06:43:50.114Z,16.90
2018-05-05T06:44:50.120Z,18.10
2018-05-05T06:45:50.133Z,16.90
2018-05-05T06:46:50.145Z,17.10
2018-05-05T06:47:50.158Z,16.20
2018-05-05T06:48:50.171Z,15.20
2018-05-05T06:49:50.188Z,17.30
2018-05-05T06:50:50.198Z,13.00
2018-05-05T06:51:50.213Z,16.10
2018-05-05T06:52:50.225Z,14.20
2018-05-05T06:53:50.242Z,16.30
2018-05-05T06:54:50.253Z,16.90
2018-05-05T06:55:50.265Z,15.10
2018-05-05T06:56:50.278Z,17.80
2018-05-05T06:57:50.292Z,16.10
2018-05-05T06:58:50.306Z,15.80
2018-05-05T06:59:50.317Z,16.90
2018-05-05T07:00:50.332Z,14.70
2018-05-05T07:01:50.351Z,18.20
2018-05-05T07:02:50.407Z,19.30
2018-05-05T07:03:50.370Z,17.90
2018-05-05T07:04:50.386Z,15.90
2018-05-05T07:05:50.400Z,18.00
2018-05-05T07:06:50.413Z,14.60
2018-05-05T07:07:50.427Z,13.50
2018-05-05T07:08:50.484Z,13.40
2018-05-05T07:09:50.452Z,12.90
2018-05-05T07:10:50.469Z,12.80
2018-05-05T07:11:50.479Z,11.80
2018-05-05T07:12:50.491Z,14.90
2018-05-05T07:13:50.509Z,13.50
2018-05-05T07:14:50.517Z,12.50
2018-05-05T07:15:50.532Z,12.40
2018-05-05T07:16:50.546Z,12.30
2018-05-05T07:17:50.559Z,13.80
2018-05-05T07:18:50.576Z,14.20
2018-05-05T07:19:50.584Z,11.20
2018-05-05T07:20:50.600Z,12.30
2018-05-05T07:21:50.610Z,12.00
2018-05-05T07:22:50.624Z,17.70
2018-05-05T07:23:50.639Z,10.70
2018-05-05T07:24:50.682Z,10.30
2018-05-05T07:25:50.666Z,14.20
2018-05-05T07:26:50.678Z,12.50
2018-05-05T07:27:50.695Z,9.90
2018-05-05T07:28:50.703Z,11.80
2018-05-05T07:29:50.717Z,11.30
2018-05-05T07:30:50.734Z,12.60
2018-05-05T07:31:50.746Z,12.50
2018-05-05T07:32:50.757Z,13.60
2018-05-05T07:33:50.772Z,8.50
2018-05-05T07:34:50.785Z,11.00
2018-05-05T07:35:50.798Z,8.60
2018-05-05T07:36:50.809Z,10.00
2018-05-05T07:37:50.824Z,9.40
2018-05-05T07:38:50.842Z,10.40
2018-05-05T07:39:50.852Z,9.30
2018-05-05T07:40:50.863Z,7.90
2018-05-05T07:41:50.879Z,7.40
2018-05-05T07:42:50.891Z,10.50
2018-05-05T07:43:50.908Z,7.30
2018-05-05T07:44:50.921Z,8.40
2018-05-05T07:45:50.931Z,13.10
2018-05-05T07:46:50.946Z,10.00
2018-05-05T07:47:50.960Z,8.70
2018-05-05T07:48:50.973Z,9.30
2018-05-05T07:49:50.986Z,5.50
2018-05-05T07:50:50.999Z,6.50
2018-05-05T07:51:51.013Z,8.30
2018-05-05T07:52:51.026Z,6.30
2018-05-05T07:53:51.041Z,7.10
2018-05-05T07:54:51.056Z,5.20
2018-05-05T07:55:51.069Z,5.80
2018-05-05T07:56:51.081Z,5.70
2018-05-05T07:57:51.097Z,5.00
2018-05-05T07:58:51.110Z,6.70
2018-05-05T07:59:51.124Z,7.60
2018-05-05T08:00:51.137Z,6.40
2018-05-05T08:01:51.152Z,6.70
2018-05-05T08:02:51.167Z,9.90
2018-05-05T08:03:51.179Z,6.90
2018-05-05T08:04:51.195Z,8.40
2018-05-05T08:05:51.208Z,5.00
2018-05-05T08:06:51.222Z,6.60
2018-05-05T08:07:51.235Z,6.30
2018-05-05T08:08:51.252Z,5.30
2018-05-05T08:09:51.264Z,6.40
2018-05-05T08:10:51.279Z,8.70
2018-05-05T08:11:51.296Z,4.80
2018-05-05T08:12:51.309Z,6.30
2018-05-05T08:13:51.323Z,5.30
2018-05-05T08:14:51.339Z,6.50
2018-05-05T08:15:51.355Z,4.60
2018-05-05T08:16:51.383Z,6.60
2018-05-05T08:17:51.379Z,7.00
2018-05-05T08:18:51.393Z,6.10
2018-05-05T08:19:51.406Z,5.90
2018-05-05T08:20:51.422Z,5.90
2018-05-05T08:21:51.437Z,7.30
2018-05-05T08:22:51.457Z,4.90
2018-05-05T08:23:51.464Z,6.20
2018-05-05T08:24:51.479Z,5.00
2018-05-05T08:25:51.498Z,5.70
2018-05-05T08:26:51.508Z,4.10
2018-05-05T08:27:51.523Z,7.60
2018-05-05T08:28:51.538Z,5.50
2018-05-05T08:29:51.555Z,5.20
2018-05-05T08:30:51.568Z,7.70
2018-05-05T08:31:51.580Z,4.20
2018-05-05T08:32:51.595Z,7.30
2018-05-05T08:33:51.611Z,4.70
2018-05-05T08:34:51.627Z,5.50
2018-05-05T08:35:51.641Z,4.70
2018-05-05T08:36:51.657Z,6.90
2018-05-05T08:37:51.673Z,5.80
2018-05-05T08:38:51.689Z,5.40
2018-05-05T08:39:51.701Z,5.80
2018-05-05T08:40:51.717Z,7.40
2018-05-05T08:41:51.731Z,3.60
2018-05-05T08:42:51.746Z,6.50
2018-05-05T08:43:51.762Z,4.60
2018-05-05T08:44:51.775Z,5.20
2018-05-05T08:45:51.791Z,5.00
2018-05-05T08:46:51.805Z,4.70
2018-05-05T08:47:51.818Z,4.90
2018-05-05T08:48:51.837Z,5.20
2018-05-05T08:49:51.851Z,3.70
2018-05-05T08:50:51.898Z,3.90
2018-05-05T08:51:51.883Z,5.10
2018-05-05T08:52:51.895Z,6.30
2018-05-05T08:53:51.911Z,4.70
2018-05-05T08:54:51.927Z,5.30
2018-05-05T08:55:51.941Z,4.60
2018-05-05T08:56:51.957Z,10.90
2018-05-05T08:57:51.972Z,6.80
2018-05-05T08:58:51.988Z,7.00
2018-05-05T08:59:52.001Z,6.30
2018-05-05T09:00:52.019Z,5.50
2018-05-05T09:01:52.033Z,7.70
2018-05-05T09:02:52.050Z,7.20
2018-05-05T09:03:52.065Z,7.80
2018-05-05T09:04:52.079Z,9.20
2018-05-05T09:05:52.094Z,16.80
2018-05-05T09:06:52.112Z,10.90
2018-05-05T09:07:52.125Z,9.30
2018-05-05T09:08:52.142Z,9.00
2018-05-05T09:09:52.161Z,5.90
2018-05-05T09:10:52.173Z,5.40
2018-05-05T09:11:52.190Z,10.50
2018-05-05T09:12:52.204Z,5.60
2018-05-05T09:13:52.220Z,5.50
2018-05-05T09:14:52.236Z,6.00
2018-05-05T09:15:52.251Z,6.00
2018-05-05T09:16:52.269Z,5.00
2018-05-05T09:17:52.286Z,6.30
2018-05-05T09:18:52.296Z,4.80
2018-05-05T09:19:52.313Z,5.40
2018-05-05T09:20:52.424Z,5.90
2018-05-05T09:21:52.342Z,11.50
2018-05-05T09:22:52.359Z,8.60
2018-05-05T09:23:52.375Z,7.40
2018-05-05T09:24:52.388Z,12.90
2018-05-05T09:25:52.407Z,7.10
2018-05-05T09:26:52.421Z,10.50
2018-05-05T09:27:52.494Z,5.70
2018-05-05T09:28:52.456Z,6.80
2018-05-05T09:29:52.468Z,10.20
2018-05-05T09:30:52.482Z,8.50
2018-05-05T09:31:52.657Z,8.40
2018-05-05T09:32:52.512Z,9.00
2018-05-05T09:33:52.583Z,14.00
2018-05-05T09:34:52.552Z,7.50
2018-05-05T09:35:52.559Z,8.50
2018-05-05T09:36:52.577Z,8.20
2018-05-05T09:37:52.593Z,8.00
2018-05-05T09:38:52.607Z,10.30
2018-05-05T09:39:52.624Z,13.80
2018-05-05T09:40:52.644Z,10.80
2018-05-05T09:41:52.659Z,10.50
2018-05-05T09:42:52.673Z,9.10
2018-05-05T09:43:52.688Z,10.80
2018-05-05T09:44:52.705Z,6.20
2018-05-05T09:45:52.722Z,9.10
2018-05-05T09:46:52.737Z,5.90
2018-05-05T09:47:52.757Z,8.30
2018-05-05T09:48:52.771Z,8.30
2018-05-05T09:49:52.784Z,10.30
2018-05-05T09:50:52.806Z,6.20
2018-05-05T09:51:52.822Z,8.40
2018-05-05T09:52:52.835Z,8.80
2018-05-05T09:53:52.852Z,15.00
2018-05-05T09:54:52.869Z,5.00
2018-05-05T09:55:52.885Z,10.00
2018-05-05T09:56:52.906Z,7.20
2018-05-05T09:57:52.919Z,10.00
2018-05-05T09:58:52.935Z,11.30
2018-05-05T09:59:52.950Z,11.70
2018-05-05T10:00:53.039Z,10.00
2018-05-05T10:01:52.982Z,10.80
2018-05-05T10:02:53.000Z,10.40
2018-05-05T10:03:53.019Z,6.30
2018-05-05T10:04:53.034Z,7.40
2018-05-05T10:05:53.056Z,8.10
2018-05-05T10:06:53.067Z,6.60
2018-05-05T10:07:53.084Z,8.80
2018-05-05T10:08:53.159Z,10.00
2018-05-05T10:09:53.121Z,10.70
2018-05-05T10:10:53.138Z,8.30
2018-05-05T10:11:53.150Z,10.30
2018-05-05T10:12:53.168Z,18.70
2018-05-05T10:13:53.186Z,15.30
2018-05-05T10:14:53.211Z,10.60
2018-05-05T10:15:53.303Z,10.10
2018-05-05T10:16:53.235Z,6.70
2018-05-05T10:17:53.253Z,10.00
2018-05-05T10:18:53.269Z,7.80
2018-05-05T10:19:53.285Z,10.70
2018-05-05T10:20:53.302Z,9.00
2018-05-05T10:21:53.320Z,14.60
2018-05-05T10:22:53.339Z,9.40
2018-05-05T10:23:53.441Z,8.40
2018-05-05T10:24:53.371Z,10.30
2018-05-05T10:25:53.387Z,13.90
2018-05-05T10:26:53.406Z,8.80
2018-05-05T10:27:53.421Z,6.20
2018-05-05T10:28:53.437Z,8.30
2018-05-05T10:29:53.451Z,11.90
2018-05-05T10:30:53.472Z,13.10
2018-05-05T10:31:53.505Z,12.20
2018-05-05T10:32:53.502Z,9.80
2018-05-05T10:33:53.518Z,9.40
2018-05-05T10:34:53.537Z,6.40
2018-05-05T10:35:53.552Z,12.00
2018-05-05T10:36:53.569Z,12.10
2018-05-05T10:37:53.586Z,7.00
2018-05-05T10:38:53.601Z,6.40
2018-05-05T10:39:53.619Z,8.80
2018-05-05T10:40:53.635Z,10.30
2018-05-05T10:41:53.656Z,9.80
2018-05-05T10:42:53.669Z,10.10
2018-05-05T10:43:53.685Z,9.50
2018-05-05T10:44:53.702Z,9.30
2018-05-05T10:45:53.719Z,6.90
2018-05-05T10:46:53.737Z,13.10
2018-05-05T10:47:53.753Z,8.00
2018-05-05T10:48:53.772Z,7.10
2018-05-05T10:49:53.786Z,10.40
2018-05-05T10:50:53.812Z,11.00
2018-05-05T10:51:53.821Z,8.90
2018-05-05T10:52:53.840Z,10.10
2018-05-05T10:53:53.855Z,11.00
2018-05-05T10:54:53.874Z,10.30
2018-05-05T10:55:53.892Z,8.70
2018-05-05T10:56:53.946Z,7.50
2018-05-05T10:57:53.927Z,9.90
2018-05-05T10:58:53.947Z,9.10
2018-05-05T10:59:53.961Z,10.90
2018-05-05T11:00:53.983Z,10.80
2018-05-05T11:01:53.998Z,6.40
2018-05-05T11:02:54.032Z,7.10
2018-05-05T11:03:54.031Z,8.70
2018-05-05T11:04:54.055Z,9.10
2018-05-05T11:05:54.070Z,9.90
2018-05-05T11:06:54.091Z,11.70
2018-05-05T11:07:54.107Z,8.30
2018-05-05T11:08:54.123Z,7.40
2018-05-05T11:09:54.141Z,11.30
2018-05-05T11:10:54.159Z,10.60
2018-05-05T11:11:54.183Z,8.70
2018-05-05T11:12:54.197Z,10.70
2018-05-05T11:13:54.214Z,10.10
2018-05-05T11:14:54.235Z,13.00
2018-05-05T11:15:54.249Z,8.30
2018-05-05T11:16:54.271Z,9.10
2018-05-05T11:17:54.290Z,10.10
2018-05-05T11:18:54.307Z,7.30
2018-05-05T11:19:54.323Z,13.60
2018-05-05T11:20:54.343Z,7.80
2018-05-05T11:21:54.363Z,8.90
2018-05-05T11:22:54.383Z,11.80
2018-05-05T11:23:54.448Z,10.80
2018-05-05T11:24:54.420Z,10.80
2018-05-05T11:25:54.441Z,7.80
2018-05-05T11:26:54.458Z,14.00
2018-05-05T11:27:54.476Z,7.70
2018-05-05T11:28:54.495Z,6.90
2018-05-05T11:29:54.576Z,7.20
2018-05-05T11:30:54.532Z,9.60
2018-05-05T11:31:54.552Z,10.00
2018-05-05T11:32:54.572Z,7.80
2018-05-05T11:33:54.591Z,9.90
2018-05-05T11:34:54.610Z,8.20
2018-05-05T11:35:54.628Z,13.70
2018-05-05T11:36:54.729Z,11.40
2018-05-05T11:37:54.670Z,7.60
2018-05-05T11:38:54.688Z,5.30
2018-05-05T11:39:54.704Z,8.10
2018-05-05T11:40:54.725Z,11.30
2018-05-05T11:41:54.749Z,10.30
2018-05-05T11:42:54.766Z,11.40
2018-05-05T11:43:54.783Z,6.90
2018-05-05T11:44:54.855Z,8.10
2018-05-05T11:45:54.823Z,12.40
2018-05-05T11:46:54.843Z,10.90
2018-05-05T11:47:54.862Z,8.60
2018-05-05T11:48:54.882Z,9.30
2018-05-05T11:49:54.900Z,8.80
2018-05-05T11:50:54.921Z,11.90
2018-05-05T11:51:54.940Z,13.00
2018-05-05T11:52:54.960Z,11.80
2018-05-05T11:53:54.978Z,9.20
2018-05-05T11:54:54.996Z,7.80
2018-05-05T11:55:55.021Z,16.10
2018-05-05T11:56:55.039Z,11.50
2018-05-05T11:57:55.057Z,9.70
2018-05-05T11:58:55.077Z,10.80
2018-05-05T11:59:55.095Z,12.60
2018-05-05T12:00:55.113Z,10.90
2018-05-05T12:01:55.134Z,12.00
2018-05-05T12:02:55.157Z,7.10
2018-05-05T12:03:55.171Z,15.40
2018-05-05T12:04:55.190Z,6.90
2018-05-05T12:05:55.210Z,7.60
2018-05-05T12:06:55.228Z,11.80
2018-05-05T12:07:55.246Z,7.20
2018-05-05T12:08:55.265Z,7.40
2018-05-05T12:09:55.287Z,8.20
2018-05-05T12:10:55.305Z,10.00
2018-05-05T12:11:55.321Z,7.80
2018-05-05T12:12:55.341Z,9.70
2018-05-05T12:13:55.360Z,11.30
2018-05-05T12:14:55.379Z,9.10
2018-05-05T12:15:55.397Z,7.60
2018-05-05T12:16:55.416Z,8.90
2018-05-05T12:17:55.437Z,10.50
2018-05-05T12:18:55.454Z,10.10
2018-05-05T12:19:55.474Z,11.40
2018-05-05T12:20:55.491Z,7.70
2018-05-05T12:21:55.509Z,7.60
2018-05-05T12:22:55.527Z,12.70
2018-05-05T12:23:55.545Z,8.30
2018-05-05T12:24:55.567Z,10.40
2018-05-05T12:25:55.583Z,7.10
2018-05-05T12:26:55.603Z,11.20
2018-05-05T12:27:55.622Z,13.60
2018-05-05T12:28:55.642Z,10.00
2018-05-05T12:29:55.745Z,7.00
2018-05-05T12:30:55.681Z,10.70
2018-05-05T12:31:55.699Z,7.90
2018-05-05T12:32:55.718Z,6.80
2018-05-05T12:33:55.745Z,9.50
2018-05-05T12:34:55.758Z,7.90
2018-05-05T12:35:55.784Z,13.30
2018-05-05T12:36:55.798Z,10.40
2018-05-05T12:37:55.818Z,7.90
2018-05-05T12:38:55.836Z,8.90
2018-05-05T12:39:55.856Z,9.40
2018-05-05T12:40:55.877Z,12.80
2018-05-05T12:41:55.898Z,7.90
2018-05-05T12:42:55.916Z,5.30
2018-05-05T12:43:55.934Z,9.70
2018-05-05T12:44:55.953Z,10.20
2018-05-05T12:45:55.972Z,10.50
2018-05-05T12:46:55.989Z,13.90
2018-05-05T12:47:56.014Z,10.90
2018-05-05T12:48:56.030Z,10.20
2018-05-05T12:49:56.065Z,8.70
2018-05-05T12:50:56.071Z,10.70
2018-05-05T12:51:56.092Z,8.40
2018-05-05T12:52:56.113Z,13.40
2018-05-05T12:53:56.127Z,11.00
2018-05-05T12:54:56.148Z,8.30
2018-05-05T12:55:56.167Z,9.80
2018-05-05T12:56:56.188Z,7.30
2018-05-05T12:57:56.217Z,5.00
2018-05-05T12:58:56.227Z,11.20